createdAt,value
2023-03-11T00:00:57.484Z,99374.22
2023-03-11T00:03:24.742Z,99364.91
2023-03-11T00:05:53.006Z,99377.19
2023-03-11T00:08:22.618Z,99383.16
2023-03-11T00:10:53.489Z,99389.81
2023-03-11T00:13:20.128Z,99385.34
2023-03-11T00:15:50.457Z,99389.50
2023-03-11T00:18:17.704Z,99395.78
2023-03-11T00:20:46.282Z,99408.66
2023-03-11T00:23:14.282Z,99408.75
2023-03-11T00:25:42.483Z,99410.38
2023-03-11T00:28:10.461Z,99414.31
2023-03-11T00:30:38.279Z,99417.94
2023-03-11T00:33:05.398Z,99422.28
2023-03-11T00:35:33.730Z,99427.84
2023-03-11T00:38:03.871Z,99427.94
2023-03-11T00:40:31.974Z,99427.13
2023-03-11T00:42:59.805Z,99414.97
2023-03-11T00:45:28.141Z,99413.69
2023-03-11T00:47:55.440Z,99407.06
2023-03-11T00:50:25.738Z,99408.03
2023-03-11T00:52:52.994Z,99419.22
2023-03-11T00:55:25.841Z,99409.50
2023-03-11T00:57:54.464Z,99406.38
2023-03-11T01:00:22.668Z,99424.56
2023-03-11T01:02:49.364Z,99439.53
2023-03-11T01:05:19.495Z,99442.38
2023-03-11T01:07:46.033Z,99450.69
2023-03-11T01:10:13.581Z,99467.38
2023-03-11T01:12:40.273Z,99463.53
2023-03-11T01:15:08.128Z,99464.88
2023-03-11T01:17:34.831Z,99462.50
2023-03-11T01:20:01.471Z,99462.91
2023-03-11T01:22:28.029Z,99470.06
2023-03-11T01:24:54.557Z,99457.00
2023-03-11T01:27:21.637Z,99462.28
2023-03-11T01:29:48.264Z,99459.66
2023-03-11T01:32:14.823Z,99458.53
2023-03-11T01:34:41.402Z,99457.00
2023-03-11T01:37:07.974Z,99468.56
2023-03-11T01:39:35.627Z,99462.88
2023-03-11T01:42:02.271Z,99467.31
2023-03-11T01:44:28.798Z,99458.63
2023-03-11T01:46:58.406Z,99468.13
2023-03-11T01:49:25.041Z,99473.25
2023-03-11T01:51:57.215Z,99474.47
2023-03-11T01:54:37.702Z,99471.66
2023-03-11T01:57:12.532Z,99484.94
2023-03-11T01:59:44.349Z,99485.88
2023-03-11T02:02:29.646Z,99490.22
2023-03-11T02:04:56.982Z,99489.63
2023-03-11T02:07:23.502Z,99506.75
2023-03-11T02:09:50.042Z,99503.81
2023-03-11T02:12:16.713Z,99509.50
2023-03-11T02:14:47.905Z,99490.69
2023-03-11T02:17:15.079Z,99483.59
2023-03-11T02:19:57.402Z,99483.78
2023-03-11T02:22:24.451Z,99484.53
2023-03-11T02:25:01.891Z,99480.38
2023-03-11T02:27:31.308Z,99476.50
2023-03-11T02:30:00.392Z,99473.56
2023-03-11T02:32:27.587Z,99464.88
2023-03-11T02:34:54.212Z,99472.91
2023-03-11T02:37:20.843Z,99466.63
2023-03-11T02:39:50.200Z,99467.69
2023-03-11T02:42:25.351Z,99468.66
2023-03-11T02:45:07.801Z,99473.88
2023-03-11T02:47:36.036Z,99476.69
2023-03-11T02:50:02.730Z,99480.97
2023-03-11T02:52:32.015Z,99484.88
2023-03-11T02:54:58.568Z,99485.75
2023-03-11T02:57:25.216Z,99497.28
2023-03-11T02:59:51.772Z,99500.53
2023-03-11T03:02:18.360Z,99506.84
2023-03-11T03:04:45.000Z,99508.22
2023-03-11T03:07:11.749Z,99509.47
2023-03-11T03:09:38.372Z,99521.31
2023-03-11T03:12:05.489Z,99523.34
2023-03-11T03:14:32.569Z,99525.06
2023-03-11T03:16:59.421Z,99537.91
2023-03-11T03:19:26.138Z,99536.25
2023-03-11T03:21:52.696Z,99545.44
2023-03-11T03:24:19.262Z,99539.97
2023-03-11T03:26:45.809Z,99543.81
2023-03-11T03:29:12.386Z,99539.94
2023-03-11T03:31:39.706Z,99541.50
2023-03-11T03:34:06.243Z,99551.66
2023-03-11T03:36:32.815Z,99560.75
2023-03-11T03:38:59.758Z,99552.16
2023-03-11T03:41:26.379Z,99555.66
2023-03-11T03:43:54.683Z,99557.97
2023-03-11T03:46:21.809Z,99561.25
2023-03-11T03:48:48.424Z,99564.78
2023-03-11T03:51:15.980Z,99562.75
2023-03-11T03:53:43.027Z,99574.31
2023-03-11T03:56:12.039Z,99576.50
2023-03-11T03:58:38.883Z,99582.66
2023-03-11T04:01:06.486Z,99583.22
2023-03-11T04:03:35.074Z,99583.88
2023-03-11T04:06:11.278Z,99579.13
2023-03-11T04:08:38.076Z,99581.56
2023-03-11T04:11:04.723Z,99576.81
2023-03-11T04:13:31.552Z,99582.63
2023-03-11T04:15:58.300Z,99583.22
2023-03-11T04:18:24.896Z,99583.56
2023-03-11T04:20:51.409Z,99578.31
2023-03-11T04:23:18.022Z,99588.78
2023-03-11T04:25:44.622Z,99596.44
2023-03-11T04:28:11.188Z,99605.56
2023-03-11T04:30:38.077Z,99601.25
2023-03-11T04:33:04.659Z,99610.63
2023-03-11T04:35:31.205Z,99610.84
2023-03-11T04:37:57.767Z,99616.59
2023-03-11T04:40:24.342Z,99615.41
2023-03-11T04:42:50.868Z,99620.44
2023-03-11T04:45:18.500Z,99617.19
2023-03-11T04:47:48.640Z,99615.09
2023-03-11T04:50:16.014Z,99618.13
2023-03-11T04:52:42.760Z,99620.00
2023-03-11T04:55:10.018Z,99622.63
2023-03-11T04:57:37.199Z,99617.72
2023-03-11T05:00:08.725Z,99630.94
2023-03-11T05:02:35.587Z,99626.03
2023-03-11T05:05:02.204Z,99628.50
2023-03-11T05:07:28.907Z,99624.94
2023-03-11T05:09:55.401Z,99621.56
2023-03-11T05:12:21.928Z,99633.75
2023-03-11T05:14:48.765Z,99636.81
2023-03-11T05:17:15.889Z,99646.09
2023-03-11T05:19:42.449Z,99650.09
2023-03-11T05:22:09.058Z,99658.88
2023-03-11T05:24:35.626Z,99655.31
2023-03-11T05:27:02.343Z,99659.16
2023-03-11T05:29:29.788Z,99650.06
2023-03-11T05:31:56.605Z,99662.88
2023-03-11T05:34:23.539Z,99659.47
2023-03-11T05:36:50.151Z,99669.31
2023-03-11T05:39:16.804Z,99668.88
2023-03-11T05:41:43.440Z,99677.81
2023-03-11T05:44:10.083Z,99677.34
2023-03-11T05:46:36.690Z,99683.34
2023-03-11T05:49:03.364Z,99681.81
2023-03-11T05:51:29.961Z,99678.28
2023-03-11T05:53:56.965Z,99681.81
2023-03-11T05:56:24.102Z,99679.97
2023-03-11T05:58:50.793Z,99678.56
2023-03-11T06:01:19.397Z,99691.84
2023-03-11T06:03:46.170Z,99687.50
2023-03-11T06:06:14.162Z,99692.91
2023-03-11T06:08:45.859Z,99700.47
2023-03-11T06:11:13.188Z,99695.06
2023-03-11T06:13:39.730Z,99702.59
2023-03-11T06:16:07.235Z,99690.09
2023-03-11T06:18:34.317Z,99697.34
2023-03-11T06:21:02.044Z,99713.09
2023-03-11T06:23:30.134Z,99719.69
2023-03-11T06:26:01.741Z,99720.91
2023-03-11T06:28:29.261Z,99718.28
2023-03-11T06:30:56.809Z,99724.31
2023-03-11T06:33:24.041Z,99724.72
2023-03-11T06:36:01.352Z,99726.69
2023-03-11T06:38:28.054Z,99728.75
2023-03-11T06:40:54.923Z,99733.88
2023-03-11T06:43:22.149Z,99736.78
2023-03-11T06:45:48.789Z,99740.00
2023-03-11T06:48:15.373Z,99745.25
2023-03-11T06:50:41.953Z,99747.88
2023-03-11T06:53:08.808Z,99762.50
2023-03-11T06:55:35.866Z,99763.78
2023-03-11T06:58:02.982Z,99763.50
2023-03-11T07:00:31.199Z,99767.69
2023-03-11T07:02:57.956Z,99780.44
2023-03-11T07:05:24.613Z,99773.97
2023-03-11T07:07:53.898Z,99763.19
2023-03-11T07:10:20.458Z,99781.38
2023-03-11T07:12:47.355Z,99789.66
2023-03-11T07:15:14.259Z,99791.84
2023-03-11T07:17:40.835Z,99784.88
2023-03-11T07:20:08.524Z,99791.34
2023-03-11T07:22:35.058Z,99795.38
2023-03-11T07:25:01.736Z,99797.66
2023-03-11T07:27:28.952Z,99799.25
2023-03-11T07:29:55.480Z,99802.16
2023-03-11T07:32:22.116Z,99807.03
2023-03-11T07:34:48.733Z,99813.22
2023-03-11T07:37:15.492Z,99815.75
2023-03-11T07:39:42.155Z,99811.09
2023-03-11T07:42:11.572Z,99827.88
2023-03-11T07:44:38.160Z,99830.25
2023-03-11T07:47:06.077Z,99833.78
2023-03-11T07:49:33.093Z,99836.63
2023-03-11T07:51:59.779Z,99850.13
2023-03-11T07:54:26.387Z,99844.44
2023-03-11T07:56:52.936Z,99845.00
2023-03-11T07:59:19.893Z,99854.22
2023-03-11T08:01:47.349Z,99854.25
2023-03-11T08:04:16.834Z,99853.94
2023-03-11T08:06:46.069Z,99870.75
2023-03-11T08:09:13.500Z,99865.44
2023-03-11T08:11:40.583Z,99867.03
2023-03-11T08:14:07.314Z,99870.44
2023-03-11T08:16:34.114Z,99883.34
2023-03-11T08:19:00.720Z,99874.09
2023-03-11T08:21:31.769Z,99885.97
2023-03-11T08:24:00.889Z,99899.53
2023-03-11T08:26:28.397Z,99892.69
2023-03-11T08:28:56.213Z,99893.91
2023-03-11T08:31:26.939Z,99908.50
2023-03-11T08:33:58.362Z,99918.03
2023-03-11T08:36:25.025Z,99922.41
2023-03-11T08:38:52.046Z,99920.50
2023-03-11T08:41:19.374Z,99915.72
2023-03-11T08:43:46.238Z,99930.25
2023-03-11T08:46:22.719Z,99930.50
2023-03-11T08:48:50.928Z,99932.94
2023-03-11T08:51:18.012Z,99934.00
2023-03-11T08:53:44.663Z,99937.03
2023-03-11T08:56:11.347Z,99933.34
2023-03-11T08:58:38.280Z,99927.00
2023-03-11T09:01:06.192Z,99926.41
2023-03-11T09:03:35.408Z,99922.63
2023-03-11T09:06:04.898Z,99931.19
2023-03-11T09:08:31.573Z,99932.44
2023-03-11T09:10:58.461Z,99946.94
2023-03-11T09:13:25.414Z,99947.84
2023-03-11T09:15:52.853Z,99942.91
2023-03-11T09:18:22.633Z,99939.59
2023-03-11T09:20:49.389Z,99939.13
2023-03-11T09:23:19.785Z,99939.03
2023-03-11T09:25:49.139Z,99945.59
2023-03-11T09:28:15.695Z,99941.13
2023-03-11T09:30:42.314Z,99954.44
2023-03-11T09:33:08.986Z,99958.03
2023-03-11T09:35:41.233Z,99953.66
2023-03-11T09:38:07.784Z,99952.09
2023-03-11T09:40:56.543Z,99952.88
2023-03-11T09:43:58.329Z,99951.84
2023-03-11T09:46:50.858Z,99954.88
2023-03-11T09:49:35.835Z,99961.75
2023-03-11T09:52:13.908Z,99962.66
2023-03-11T09:55:00.398Z,99952.03
2023-03-11T09:57:32.249Z,99957.28
2023-03-11T10:00:02.736Z,99954.94
2023-03-11T10:02:30.817Z,99961.34
2023-03-11T10:05:03.307Z,99960.16
2023-03-11T10:07:43.797Z,99955.81
2023-03-11T10:10:15.030Z,99962.03
2023-03-11T10:13:20.068Z,99962.13
2023-03-11T10:15:58.568Z,99966.94
2023-03-11T10:18:37.437Z,99966.16
2023-03-11T10:21:28.694Z,99968.09
2023-03-11T10:24:32.014Z,99972.00
2023-03-11T10:27:06.231Z,99963.09
2023-03-11T10:29:47.191Z,99962.25
2023-03-11T10:32:36.208Z,99971.69
2023-03-11T10:35:46.235Z,99966.50
2023-03-11T10:38:22.399Z,99965.47
2023-03-11T10:40:53.678Z,99968.84
2023-03-11T10:43:40.543Z,99969.34
2023-03-11T10:46:17.763Z,99962.44
2023-03-11T10:48:44.413Z,99972.44
2023-03-11T10:51:22.837Z,99972.88
2023-03-11T10:53:55.684Z,99975.53
2023-03-11T10:56:28.700Z,99966.34
2023-03-11T10:58:56.121Z,99971.78
2023-03-11T11:01:22.878Z,99967.97
2023-03-11T11:03:57.624Z,99972.06
2023-03-11T11:06:37.386Z,99971.50
2023-03-11T11:09:17.969Z,99978.28
2023-03-11T11:12:03.332Z,99977.41
2023-03-11T11:14:52.960Z,99990.53
2023-03-11T11:17:34.274Z,99985.66
2023-03-11T11:20:13.094Z,99990.97
2023-03-11T11:22:48.837Z,99981.19
2023-03-11T11:25:36.930Z,99987.34
2023-03-11T11:28:20.858Z,99991.31
2023-03-11T11:31:06.125Z,99984.34
2023-03-11T11:33:50.879Z,99985.84
2023-03-11T11:36:18.896Z,99992.59
2023-03-11T11:38:45.470Z,99986.06
2023-03-11T11:41:18.212Z,99984.53
2023-03-11T11:43:58.218Z,99990.34
2023-03-11T11:46:31.444Z,99988.44
2023-03-11T11:49:20.833Z,100000.25
2023-03-11T11:51:52.092Z,99999.69
2023-03-11T11:54:29.229Z,99998.91
2023-03-11T11:56:56.898Z,99996.38
2023-03-11T11:59:25.238Z,99997.47
2023-03-11T12:02:16.494Z,99987.63
2023-03-11T12:04:48.043Z,99988.50
2023-03-11T12:07:34.198Z,99983.44
2023-03-11T12:10:38.318Z,99982.38
2023-03-11T12:13:14.295Z,99971.47
2023-03-11T12:15:55.503Z,99973.00
2023-03-11T12:18:45.071Z,99980.19
2023-03-11T12:21:28.307Z,99978.84
2023-03-11T12:24:21.719Z,99983.16
2023-03-11T12:26:52.284Z,99977.91
2023-03-11T12:29:43.332Z,99972.66
2023-03-11T12:32:23.561Z,99979.25
2023-03-11T12:34:50.392Z,99974.00
2023-03-11T12:37:22.469Z,99979.34
2023-03-11T12:39:49.120Z,99959.69
2023-03-11T12:42:36.853Z,99968.31
2023-03-11T12:45:47.421Z,99971.81
2023-03-11T12:48:29.407Z,99974.84
2023-03-11T12:50:59.913Z,99966.53
2023-03-11T12:53:47.146Z,99970.03
2023-03-11T12:56:39.613Z,99976.88
2023-03-11T12:59:14.563Z,99982.09
2023-03-11T13:02:11.984Z,99986.84
2023-03-11T13:05:07.628Z,99986.59
2023-03-11T13:07:49.044Z,99997.47
2023-03-11T13:10:18.563Z,99993.84
2023-03-11T13:12:50.407Z,99995.16
2023-03-11T13:15:22.692Z,99991.44
2023-03-11T13:18:05.255Z,99994.19
2023-03-11T13:20:44.378Z,99999.56
2023-03-11T13:23:14.110Z,99993.84
2023-03-11T13:26:03.751Z,100004.78
2023-03-11T13:28:58.427Z,100004.00
2023-03-11T13:31:39.200Z,100009.03
2023-03-11T13:34:17.465Z,100011.09
2023-03-11T13:37:18.124Z,100007.03
2023-03-11T13:40:13.996Z,100009.53
2023-03-11T13:42:45.743Z,100011.25
2023-03-11T13:45:32.196Z,100011.88
2023-03-11T13:48:07.870Z,100023.00
2023-03-11T13:50:38.879Z,100021.19
2023-03-11T13:53:15.692Z,100019.06
2023-03-11T13:55:46.325Z,100027.41
2023-03-11T13:58:31.092Z,100031.91
2023-03-11T14:00:59.943Z,100038.28
2023-03-11T14:03:31.646Z,100038.72
2023-03-11T14:06:04.955Z,100039.47
2023-03-11T14:08:35.547Z,100029.91
2023-03-11T14:11:08.316Z,100038.94
2023-03-11T14:13:43.385Z,100039.53
2023-03-11T14:16:44.333Z,100042.97
2023-03-11T14:19:15.897Z,100027.69
2023-03-11T14:21:44.291Z,100034.28
2023-03-11T14:24:23.519Z,100031.44
2023-03-11T14:26:55.080Z,100026.72
2023-03-11T14:29:32.807Z,100033.88
2023-03-11T14:31:59.565Z,100035.88
2023-03-11T14:34:28.818Z,100036.97
2023-03-11T14:36:58.894Z,100036.16
2023-03-11T14:39:29.632Z,100036.28
2023-03-11T14:42:03.926Z,100029.75
2023-03-11T14:44:38.641Z,100018.72
2023-03-11T14:47:12.052Z,100016.25
2023-03-11T14:49:39.688Z,100003.31
2023-03-11T14:52:14.074Z,100015.19
2023-03-11T14:54:41.682Z,100010.34
2023-03-11T14:57:22.266Z,100030.97
2023-03-11T14:59:50.671Z,100030.97
2023-03-11T15:02:35.764Z,100022.38
2023-03-11T15:05:10.380Z,100024.19
2023-03-11T15:07:38.336Z,100027.84
2023-03-11T15:10:09.979Z,100032.50
2023-03-11T15:12:44.158Z,100044.47
2023-03-11T15:15:40.694Z,100032.97
2023-03-11T15:18:22.800Z,100030.59
2023-03-11T15:21:03.870Z,100035.63
2023-03-11T15:23:31.053Z,100030.03
2023-03-11T15:25:57.733Z,100026.25
2023-03-11T15:28:28.068Z,100033.16
2023-03-11T15:31:22.448Z,100034.66
2023-03-11T15:33:51.512Z,100028.03
2023-03-11T15:36:31.394Z,100032.94
2023-03-11T15:39:28.898Z,100049.03
2023-03-11T15:42:03.547Z,100045.34
2023-03-11T15:44:33.306Z,100036.09
2023-03-11T15:47:00.904Z,100038.94
2023-03-11T15:49:29.119Z,100045.53
2023-03-11T15:51:59.855Z,100048.59
2023-03-11T15:54:27.223Z,100051.31
2023-03-11T15:56:55.514Z,100057.38
2023-03-11T15:59:22.428Z,100055.41
2023-03-11T16:01:48.959Z,100047.50
2023-03-11T16:04:18.498Z,100061.66
2023-03-11T16:06:49.584Z,100076.06
2023-03-11T16:09:20.835Z,100063.34
2023-03-11T16:11:47.424Z,100069.69
2023-03-11T16:14:20.580Z,100068.25
2023-03-11T16:16:47.613Z,100062.84
2023-03-11T16:19:14.320Z,100061.56
2023-03-11T16:21:46.006Z,100062.09
2023-03-11T16:24:18.959Z,100076.06
2023-03-11T16:26:45.809Z,100072.41
2023-03-11T16:29:19.359Z,100069.41
2023-03-11T16:31:46.526Z,100078.09
2023-03-11T16:34:13.268Z,100079.28
2023-03-11T16:36:39.849Z,100074.25
2023-03-11T16:39:06.733Z,100081.81
2023-03-11T16:41:42.172Z,100082.72
2023-03-11T16:44:09.959Z,100081.66
2023-03-11T16:46:36.956Z,100084.94
2023-03-11T16:49:03.992Z,100082.72
2023-03-11T16:51:31.149Z,100076.25
2023-03-11T16:53:58.069Z,100077.38
2023-03-11T16:56:24.731Z,100085.50
2023-03-11T16:58:51.458Z,100090.53
2023-03-11T17:01:19.156Z,100083.84
2023-03-11T17:03:48.797Z,100096.81
2023-03-11T17:06:17.045Z,100081.75
2023-03-11T17:08:48.881Z,100095.34
2023-03-11T17:11:23.259Z,100099.13
2023-03-11T17:13:50.498Z,100094.38
2023-03-11T17:16:17.190Z,100098.88
2023-03-11T17:18:43.952Z,100101.03
2023-03-11T17:21:13.381Z,100102.41
2023-03-11T17:23:40.303Z,100106.97
2023-03-11T17:26:14.995Z,100120.78
2023-03-11T17:28:42.425Z,100121.09
2023-03-11T17:31:15.191Z,100116.47
2023-03-11T17:33:42.396Z,100135.88
2023-03-11T17:36:12.904Z,100136.94
2023-03-11T17:38:39.570Z,100127.66
2023-03-11T17:41:16.924Z,100134.75
2023-03-11T17:43:44.172Z,100132.47
2023-03-11T17:46:14.372Z,100143.56
2023-03-11T17:48:45.217Z,100133.50
2023-03-11T17:51:14.600Z,100142.63
2023-03-11T17:53:45.549Z,100144.19
2023-03-11T17:56:14.505Z,100143.25
2023-03-11T17:58:41.876Z,100143.56
2023-03-11T18:01:12.871Z,100152.81
2023-03-11T18:03:39.474Z,100148.78
2023-03-11T18:06:06.831Z,100152.28
2023-03-11T18:08:35.431Z,100147.88
2023-03-11T18:11:10.499Z,100160.78
2023-03-11T18:13:38.622Z,100158.66
2023-03-11T18:16:18.081Z,100162.38
2023-03-11T18:18:45.203Z,100163.88
2023-03-11T18:21:20.621Z,100178.34
2023-03-11T18:23:48.191Z,100174.59
2023-03-11T18:26:17.392Z,100183.50
2023-03-11T18:28:44.820Z,100181.63
2023-03-11T18:31:17.237Z,100178.72
2023-03-11T18:33:48.940Z,100180.84
2023-03-11T18:36:18.128Z,100177.06
2023-03-11T18:38:45.337Z,100177.47
2023-03-11T18:41:12.136Z,100179.34
2023-03-11T18:43:38.664Z,100180.09
2023-03-11T18:46:10.231Z,100171.19
2023-03-11T18:48:37.630Z,100183.56
2023-03-11T18:51:04.660Z,100188.44
2023-03-11T18:53:31.249Z,100186.13
2023-03-11T18:56:12.424Z,100182.91
2023-03-11T18:58:39.004Z,100188.63
2023-03-11T19:01:18.044Z,100182.94
2023-03-11T19:03:49.815Z,100188.75
2023-03-11T19:06:16.696Z,100183.94
2023-03-11T19:08:43.782Z,100183.75
2023-03-11T19:11:12.386Z,100175.63
2023-03-11T19:13:46.597Z,100175.22
2023-03-11T19:16:16.949Z,100181.91
2023-03-11T19:18:43.891Z,100170.22
2023-03-11T19:21:12.979Z,100177.38
2023-03-11T19:23:40.177Z,100177.63
2023-03-11T19:26:07.168Z,100184.22
2023-03-11T19:28:33.943Z,100189.13
2023-03-11T19:31:00.577Z,100180.19
2023-03-11T19:33:27.589Z,100172.56
2023-03-11T19:35:59.687Z,100179.59
2023-03-11T19:38:27.343Z,100180.09
2023-03-11T19:41:05.005Z,100175.47
2023-03-11T19:43:31.944Z,100180.84
2023-03-11T19:45:58.677Z,100181.00
2023-03-11T19:48:25.285Z,100176.94
2023-03-11T19:50:52.062Z,100185.09
2023-03-11T19:53:20.433Z,100178.31
2023-03-11T19:55:50.101Z,100181.69
2023-03-11T19:58:17.926Z,100179.59
2023-03-11T20:00:45.126Z,100188.94
2023-03-11T20:03:12.818Z,100187.88
2023-03-11T20:05:41.236Z,100194.50
2023-03-11T20:08:08.718Z,100197.59
2023-03-11T20:10:39.940Z,100207.66
2023-03-11T20:13:07.185Z,100213.66
2023-03-11T20:15:33.816Z,100211.03
2023-03-11T20:18:01.173Z,100216.81
2023-03-11T20:20:30.880Z,100207.78
2023-03-11T20:22:58.201Z,100205.00
2023-03-11T20:25:25.593Z,100207.78
2023-03-11T20:27:53.293Z,100215.66
2023-03-11T20:30:20.236Z,100215.44
2023-03-11T20:32:47.449Z,100214.78
2023-03-11T20:35:15.261Z,100226.47
2023-03-11T20:37:43.390Z,100224.09
2023-03-11T20:40:14.824Z,100226.72
2023-03-11T20:42:46.627Z,100227.16
2023-03-11T20:45:16.223Z,100219.59
2023-03-11T20:47:44.348Z,100213.75
2023-03-11T20:50:14.386Z,100218.81
2023-03-11T20:52:41.040Z,100218.84
2023-03-11T20:55:10.116Z,100227.00
2023-03-11T20:57:38.147Z,100223.59
2023-03-11T21:00:11.630Z,100221.88
2023-03-11T21:02:40.021Z,100229.00
2023-03-11T21:05:08.476Z,100237.66
2023-03-11T21:07:35.654Z,100236.69
2023-03-11T21:10:04.639Z,100233.34
2023-03-11T21:12:31.464Z,100235.78
2023-03-11T21:14:58.230Z,100230.53
2023-03-11T21:17:24.853Z,100226.38
2023-03-11T21:19:51.530Z,100235.78
2023-03-11T21:22:18.156Z,100237.19
2023-03-11T21:24:45.285Z,100237.97
2023-03-11T21:27:12.067Z,100239.84
2023-03-11T21:29:38.745Z,100246.66
2023-03-11T21:32:05.768Z,100248.22
2023-03-11T21:34:32.557Z,100242.03
2023-03-11T21:36:59.191Z,100245.13
2023-03-11T21:39:25.764Z,100243.91
2023-03-11T21:41:53.323Z,100233.69
2023-03-11T21:44:20.063Z,100234.44
2023-03-11T21:46:47.083Z,100225.16
2023-03-11T21:49:14.928Z,100227.50
2023-03-11T21:51:41.790Z,100241.09
2023-03-11T21:54:10.429Z,100239.72
2023-03-11T21:56:37.144Z,100233.34
2023-03-11T21:59:04.269Z,100232.25
2023-03-11T22:01:31.522Z,100245.66
2023-03-11T22:03:58.362Z,100242.16
2023-03-11T22:06:25.174Z,100236.44
2023-03-11T22:08:52.463Z,100240.66
2023-03-11T22:11:20.521Z,100245.69
2023-03-11T22:13:49.478Z,100253.50
2023-03-11T22:16:16.773Z,100256.75
2023-03-11T22:18:43.736Z,100242.91
2023-03-11T22:21:11.177Z,100242.41
2023-03-11T22:23:37.994Z,100247.88
2023-03-11T22:26:04.938Z,100250.72
2023-03-11T22:28:31.645Z,100250.81
2023-03-11T22:30:58.404Z,100252.94
2023-03-11T22:33:26.015Z,100248.91
2023-03-11T22:35:57.392Z,100247.56
2023-03-11T22:38:24.022Z,100251.88
2023-03-11T22:40:51.105Z,100260.59
2023-03-11T22:43:17.769Z,100256.78
2023-03-11T22:45:45.062Z,100256.53
2023-03-11T22:48:11.606Z,100250.19
2023-03-11T22:50:42.352Z,100253.88
2023-03-11T22:53:08.958Z,100256.41
2023-03-11T22:55:39.973Z,100255.47
2023-03-11T22:58:06.898Z,100257.94
2023-03-11T23:00:34.038Z,100247.41
2023-03-11T23:03:00.719Z,100254.97
2023-03-11T23:05:27.434Z,100264.88
2023-03-11T23:07:54.108Z,100258.19
2023-03-11T23:10:21.556Z,100258.63
2023-03-11T23:12:48.933Z,100250.41
2023-03-11T23:15:18.040Z,100254.09
2023-03-11T23:17:44.648Z,100258.69
2023-03-11T23:20:13.880Z,100259.50
2023-03-11T23:22:41.702Z,100258.88
2023-03-11T23:25:11.694Z,100269.59
2023-03-11T23:27:38.233Z,100254.88
2023-03-11T23:30:05.777Z,100268.38
2023-03-11T23:32:32.394Z,100270.06
2023-03-11T23:34:59.024Z,100271.13
2023-03-11T23:37:25.565Z,100261.19
2023-03-11T23:39:52.211Z,100262.94
2023-03-11T23:42:25.841Z,100260.69
2023-03-11T23:44:53.225Z,100258.19
2023-03-11T23:47:19.834Z,100266.63
2023-03-11T23:49:46.386Z,100259.19
2023-03-11T23:52:12.951Z,100266.94
2023-03-11T23:54:39.492Z,100268.34
2023-03-11T23:57:06.068Z,100274.78
2023-03-11T23:59:32.755Z,100271.66
